Kezdőlap
METAR-TAF:

METAR-TAF

Repülőterek :

Municipal_Airport

Cherokee, Iowa, Amerikai Egyesült Államok

földrajzi szélesség: 42-43-54N, földrajzi hosszúság: 095-33-21W, magasság: 374 m

Jelenlegi meteorológiai megfigyelések

A jelentés 18 perccel ezelõtt készült, 16:55 UTC
Észak-északnyugati szél 12 kt széllökések: 23 kt
Hőmérséklet 13°C
Páratartalom 44%
Légköri nyomás 1025 hPa
Látótávolság: 16.1 km
Szórványos felhőzet 4900 lábon
Szórványos felhőzet 6000 lábon

METAR: KCKP 011655Z AUTO 34012G23KT 10SM SCT049 SCT060 13/01 A3027 RMK AO2 T01270009

Idő: 12:13 (17:13 UTC)


TAF: hiányzik

Meteorológiai megfigyelések és előrejelzések több, mint 4000 repülőtéren (METAR és TAF jelentéseket).

A térképen piros és sárga pontok jelzik az elérhető meteorológiai állomásokat.

Mozgassa az egeret a pont fölött, hogy megjelenjen az állomás neve.

Azután kattintson az időjárási megfigyelések és előrejelzések megtekintéséhez.

A térkép megváltoztatása: kattintson a fekete keresztel jelölt zöld gombra ráközelítéshez, a vonallal jelölt zöld gombra távolításhoz, vagy a zöld nyilakra a szomszédos térképek eléréséhez.


METAR-TAF: